sensor_id;sensor_type;location;lat;lon;timestamp;temperature;humidity
33717;DHT22;20046;50.746;7.072;2022-08-18T00:01:17;19.00;99.90
33717;DHT22;20046;50.746;7.072;2022-08-18T00:03:44;18.90;99.90
33717;DHT22;20046;50.746;7.072;2022-08-18T00:06:10;18.90;99.90
33717;DHT22;20046;50.746;7.072;2022-08-18T00:08:37;18.90;99.90
33717;DHT22;20046;50.746;7.072;2022-08-18T00:11:04;18.80;99.90
33717;DHT22;20046;50.746;7.072;2022-08-18T00:13:29;18.80;99.90
33717;DHT22;20046;50.746;7.072;2022-08-18T00:15:55;18.80;99.90
33717;DHT22;20046;50.746;7.072;2022-08-18T00:18:21;18.70;99.90
33717;DHT22;20046;50.746;7.072;2022-08-18T00:20:46;18.70;99.90
33717;DHT22;20046;50.746;7.072;2022-08-18T00:23:13;18.70;99.90
33717;DHT22;20046;50.746;7.072;2022-08-18T00:25:39;18.60;99.90
33717;DHT22;20046;50.746;7.072;2022-08-18T00:28:05;18.60;99.90
33717;DHT22;20046;50.746;7.072;2022-08-18T00:30:31;18.60;99.90
33717;DHT22;20046;50.746;7.072;2022-08-18T00:32:58;18.60;99.90
33717;DHT22;20046;50.746;7.072;2022-08-18T00:35:27;18.60;99.90
33717;DHT22;20046;50.746;7.072;2022-08-18T00:37:56;18.50;99.90
33717;DHT22;20046;50.746;7.072;2022-08-18T00:40:26;18.50;99.90
33717;DHT22;20046;50.746;7.072;2022-08-18T00:42:58;18.40;99.90
33717;DHT22;20046;50.746;7.072;2022-08-18T00:45:38;18.40;99.90
33717;DHT22;20046;50.746;7.072;2022-08-18T00:48:06;18.30;99.90
33717;DHT22;20046;50.746;7.072;2022-08-18T00:53:40;18.30;99.90
33717;DHT22;20046;50.746;7.072;2022-08-18T00:56:20;18.30;99.90
33717;DHT22;20046;50.746;7.072;2022-08-18T00:58:57;18.20;99.90
33717;DHT22;20046;50.746;7.072;2022-08-18T01:01:26;18.20;99.90
33717;DHT22;20046;50.746;7.072;2022-08-18T01:03:58;18.20;99.90
33717;DHT22;20046;50.746;7.072;2022-08-18T01:06:39;18.10;99.90
33717;DHT22;20046;50.746;7.072;2022-08-18T01:09:07;18.10;99.90
33717;DHT22;20046;50.746;7.072;2022-08-18T01:11:34;18.10;99.90
33717;DHT22;20046;50.746;7.072;2022-08-18T01:14:02;18.10;99.90
33717;DHT22;20046;50.746;7.072;2022-08-18T01:16:28;18.00;99.90
33717;DHT22;20046;50.746;7.072;2022-08-18T01:19:12;18.00;99.90
33717;DHT22;20046;50.746;7.072;2022-08-18T01:22:04;18.00;99.90
33717;DHT22;20046;50.746;7.072;2022-08-18T01:24:34;18.00;99.90
33717;DHT22;20046;50.746;7.072;2022-08-18T01:27:19;18.00;99.90
33717;DHT22;20046;50.746;7.072;2022-08-18T01:29:49;18.00;99.90
33717;DHT22;20046;50.746;7.072;2022-08-18T01:32:20;17.90;99.90
33717;DHT22;20046;50.746;7.072;2022-08-18T01:34:47;17.90;99.90
33717;DHT22;20046;50.746;7.072;2022-08-18T01:37:15;17.90;99.90
33717;DHT22;20046;50.746;7.072;2022-08-18T01:39:43;17.80;99.90
33717;DHT22;20046;50.746;7.072;2022-08-18T01:42:09;17.80;99.90
33717;DHT22;20046;50.746;7.072;2022-08-18T01:44:35;17.80;99.90
33717;DHT22;20046;50.746;7.072;2022-08-18T01:47:00;17.80;99.90
33717;DHT22;20046;50.746;7.072;2022-08-18T01:49:26;17.80;99.90
33717;DHT22;20046;50.746;7.072;2022-08-18T01:51:53;17.80;99.90
33717;DHT22;20046;50.746;7.072;2022-08-18T01:54:20;17.80;99.90
33717;DHT22;20046;50.746;7.072;2022-08-18T01:56:46;17.70;99.90
33717;DHT22;20046;50.746;7.072;2022-08-18T01:59:14;17.70;99.90
33717;DHT22;20046;50.746;7.072;2022-08-18T02:01:42;17.70;99.90
33717;DHT22;20046;50.746;7.072;2022-08-18T02:04:09;17.70;99.90
33717;DHT22;20046;50.746;7.072;2022-08-18T02:06:37;17.60;99.90
33717;DHT22;20046;50.746;7.072;2022-08-18T02:09:03;17.60;99.90
33717;DHT22;20046;50.746;7.072;2022-08-18T02:11:29;17.60;99.90
33717;DHT22;20046;50.746;7.072;2022-08-18T02:13:54;17.60;99.90
33717;DHT22;20046;50.746;7.072;2022-08-18T02:16:20;17.60;99.90
33717;DHT22;20046;50.746;7.072;2022-08-18T02:18:45;17.60;99.90
33717;DHT22;20046;50.746;7.072;2022-08-18T02:21:14;17.60;99.90
33717;DHT22;20046;50.746;7.072;2022-08-18T02:23:42;17.60;99.90
33717;DHT22;20046;50.746;7.072;2022-08-18T02:26:11;17.60;99.90
33717;DHT22;20046;50.746;7.072;2022-08-18T02:28:37;17.60;99.90
33717;DHT22;20046;50.746;7.072;2022-08-18T02:31:05;17.60;99.90
33717;DHT22;20046;50.746;7.072;2022-08-18T02:33:32;17.50;99.90
33717;DHT22;20046;50.746;7.072;2022-08-18T02:35:58;17.50;99.90
33717;DHT22;20046;50.746;7.072;2022-08-18T02:38:24;17.40;99.90
33717;DHT22;20046;50.746;7.072;2022-08-18T02:40:57;17.40;99.90
33717;DHT22;20046;50.746;7.072;2022-08-18T02:43:23;17.40;99.90
33717;DHT22;20046;50.746;7.072;2022-08-18T02:45:48;17.40;99.90
33717;DHT22;20046;50.746;7.072;2022-08-18T02:48:15;17.40;99.90
33717;DHT22;20046;50.746;7.072;2022-08-18T02:50:41;17.40;99.90
33717;DHT22;20046;50.746;7.072;2022-08-18T02:53:15;17.30;99.90
33717;DHT22;20046;50.746;7.072;2022-08-18T02:55:47;17.30;99.90
33717;DHT22;20046;50.746;7.072;2022-08-18T02:58:13;17.20;99.90
33717;DHT22;20046;50.746;7.072;2022-08-18T03:00:39;17.20;99.90
33717;DHT22;20046;50.746;7.072;2022-08-18T03:03:05;17.10;99.90
33717;DHT22;20046;50.746;7.072;2022-08-18T03:05:31;17.10;99.90
33717;DHT22;20046;50.746;7.072;2022-08-18T03:07:56;17.10;99.90
33717;DHT22;20046;50.746;7.072;2022-08-18T03:10:24;17.10;99.90
33717;DHT22;20046;50.746;7.072;2022-08-18T03:12:50;17.00;99.90
33717;DHT22;20046;50.746;7.072;2022-08-18T03:15:15;17.10;99.90
33717;DHT22;20046;50.746;7.072;2022-08-18T03:17:41;17.10;99.90
33717;DHT22;20046;50.746;7.072;2022-08-18T03:20:07;17.00;99.90
33717;DHT22;20046;50.746;7.072;2022-08-18T03:22:33;17.10;99.90
33717;DHT22;20046;50.746;7.072;2022-08-18T03:24:58;17.10;99.90
33717;DHT22;20046;50.746;7.072;2022-08-18T03:27:24;17.10;99.90
33717;DHT22;20046;50.746;7.072;2022-08-18T03:29:50;17.20;99.90
33717;DHT22;20046;50.746;7.072;2022-08-18T03:32:16;17.20;99.90
33717;DHT22;20046;50.746;7.072;2022-08-18T03:34:42;17.20;99.90
33717;DHT22;20046;50.746;7.072;2022-08-18T03:37:08;17.20;99.90
33717;DHT22;20046;50.746;7.072;2022-08-18T03:39:34;17.20;99.90
33717;DHT22;20046;50.746;7.072;2022-08-18T03:42:00;17.20;99.90
33717;DHT22;20046;50.746;7.072;2022-08-18T03:44:30;17.20;99.90
33717;DHT22;20046;50.746;7.072;2022-08-18T03:46:55;17.20;99.90
33717;DHT22;20046;50.746;7.072;2022-08-18T03:49:21;17.30;99.90
33717;DHT22;20046;50.746;7.072;2022-08-18T03:51:47;17.30;99.90
33717;DHT22;20046;50.746;7.072;2022-08-18T03:54:15;17.40;99.90
33717;DHT22;20046;50.746;7.072;2022-08-18T03:56:41;17.50;99.90
33717;DHT22;20046;50.746;7.072;2022-08-18T03:59:22;17.50;99.90
33717;DHT22;20046;50.746;7.072;2022-08-18T04:01:49;17.50;99.90
33717;DHT22;20046;50.746;7.072;2022-08-18T04:04:17;17.60;99.90
33717;DHT22;20046;50.746;7.072;2022-08-18T04:06:47;17.60;99.90
33717;DHT22;20046;50.746;7.072;2022-08-18T04:09:17;17.70;99.90
33717;DHT22;20046;50.746;7.072;2022-08-18T04:11:43;17.70;99.90
33717;DHT22;20046;50.746;7.072;2022-08-18T04:14:14;17.80;99.90
33717;DHT22;20046;50.746;7.072;2022-08-18T04:16:40;17.80;99.90
33717;DHT22;20046;50.746;7.072;2022-08-18T04:19:07;17.90;99.90
33717;DHT22;20046;50.746;7.072;2022-08-18T04:21:35;17.90;99.90
33717;DHT22;20046;50.746;7.072;2022-08-18T04:24:02;17.90;99.90
33717;DHT22;20046;50.746;7.072;2022-08-18T04:26:30;17.90;99.90
33717;DHT22;20046;50.746;7.072;2022-08-18T04:28:56;18.00;99.90
33717;DHT22;20046;50.746;7.072;2022-08-18T04:31:25;18.00;99.90
33717;DHT22;20046;50.746;7.072;2022-08-18T04:33:51;18.00;99.90
33717;DHT22;20046;50.746;7.072;2022-08-18T04:36:16;18.00;99.90
33717;DHT22;20046;50.746;7.072;2022-08-18T04:38:42;18.10;99.90
33717;DHT22;20046;50.746;7.072;2022-08-18T04:41:10;18.10;99.90
33717;DHT22;20046;50.746;7.072;2022-08-18T04:43:37;18.10;99.90
33717;DHT22;20046;50.746;7.072;2022-08-18T04:46:03;18.10;99.90
33717;DHT22;20046;50.746;7.072;2022-08-18T04:48:35;18.10;99.90
33717;DHT22;20046;50.746;7.072;2022-08-18T04:53:34;18.20;99.90
33717;DHT22;20046;50.746;7.072;2022-08-18T04:56:22;18.20;99.90
33717;DHT22;20046;50.746;7.072;2022-08-18T04:58:57;18.20;99.90
33717;DHT22;20046;50.746;7.072;2022-08-18T05:01:26;18.20;99.90
33717;DHT22;20046;50.746;7.072;2022-08-18T05:03:53;18.20;99.90
33717;DHT22;20046;50.746;7.072;2022-08-18T05:06:21;18.20;99.90
33717;DHT22;20046;50.746;7.072;2022-08-18T05:08:51;18.20;99.90
33717;DHT22;20046;50.746;7.072;2022-08-18T05:11:19;18.20;99.90
33717;DHT22;20046;50.746;7.072;2022-08-18T05:13:46;18.10;99.90
33717;DHT22;20046;50.746;7.072;2022-08-18T05:16:12;18.10;99.90
33717;DHT22;20046;50.746;7.072;2022-08-18T05:18:38;18.10;99.90
33717;DHT22;20046;50.746;7.072;2022-08-18T05:21:06;18.10;99.90
33717;DHT22;20046;50.746;7.072;2022-08-18T05:23:33;18.20;99.90
33717;DHT22;20046;50.746;7.072;2022-08-18T05:26:01;18.20;99.90
33717;DHT22;20046;50.746;7.072;2022-08-18T05:28:29;18.20;99.90
33717;DHT22;20046;50.746;7.072;2022-08-18T05:30:55;18.30;99.90
33717;DHT22;20046;50.746;7.072;2022-08-18T05:33:22;18.30;99.90
33717;DHT22;20046;50.746;7.072;2022-08-18T05:35:54;18.30;99.90
33717;DHT22;20046;50.746;7.072;2022-08-18T05:41:14;18.40;99.90
33717;DHT22;20046;50.746;7.072;2022-08-18T05:43:44;18.40;99.90
33717;DHT22;20046;50.746;7.072;2022-08-18T05:46:13;18.40;99.90
33717;DHT22;20046;50.746;7.072;2022-08-18T05:48:40;18.50;99.90
33717;DHT22;20046;50.746;7.072;2022-08-18T05:51:15;18.50;99.90
33717;DHT22;20046;50.746;7.072;2022-08-18T05:53:42;18.60;99.90
33717;DHT22;20046;50.746;7.072;2022-08-18T05:56:31;18.60;99.90
33717;DHT22;20046;50.746;7.072;2022-08-18T05:59:25;18.60;99.90
33717;DHT22;20046;50.746;7.072;2022-08-18T06:02:17;18.70;99.90
33717;DHT22;20046;50.746;7.072;2022-08-18T06:04:51;18.80;99.90
33717;DHT22;20046;50.746;7.072;2022-08-18T06:07:22;18.80;99.90
33717;DHT22;20046;50.746;7.072;2022-08-18T06:09:53;18.80;99.90
33717;DHT22;20046;50.746;7.072;2022-08-18T06:12:32;18.80;99.90
33717;DHT22;20046;50.746;7.072;2022-08-18T06:15:12;18.90;99.90
33717;DHT22;20046;50.746;7.072;2022-08-18T06:18:05;18.90;99.90
33717;DHT22;20046;50.746;7.072;2022-08-18T06:26:37;18.80;99.90
33717;DHT22;20046;50.746;7.072;2022-08-18T06:29:36;18.80;99.90
33717;DHT22;20046;50.746;7.072;2022-08-18T06:40:29;18.70;99.90
33717;DHT22;20046;50.746;7.072;2022-08-18T06:42:55;18.70;99.90
33717;DHT22;20046;50.746;7.072;2022-08-18T06:45:27;18.70;99.90
33717;DHT22;20046;50.746;7.072;2022-08-18T06:48:26;18.60;99.90
33717;DHT22;20046;50.746;7.072;2022-08-18T06:50:58;18.60;99.90
33717;DHT22;20046;50.746;7.072;2022-08-18T06:54:00;18.50;99.90
33717;DHT22;20046;50.746;7.072;2022-08-18T07:01:42;18.60;99.90
33717;DHT22;20046;50.746;7.072;2022-08-18T07:04:08;18.60;99.90
33717;DHT22;20046;50.746;7.072;2022-08-18T07:06:34;18.60;99.90
33717;DHT22;20046;50.746;7.072;2022-08-18T07:09:23;18.60;99.90
33717;DHT22;20046;50.746;7.072;2022-08-18T07:12:05;18.60;99.90
33717;DHT22;20046;50.746;7.072;2022-08-18T07:14:31;18.60;99.90
33717;DHT22;20046;50.746;7.072;2022-08-18T07:17:11;18.60;99.90
33717;DHT22;20046;50.746;7.072;2022-08-18T07:19:38;18.70;99.90
33717;DHT22;20046;50.746;7.072;2022-08-18T07:27:18;18.70;99.90
33717;DHT22;20046;50.746;7.072;2022-08-18T07:32:36;18.70;99.90
33717;DHT22;20046;50.746;7.072;2022-08-18T07:35:06;18.70;99.90
33717;DHT22;20046;50.746;7.072;2022-08-18T07:37:42;18.70;99.90
33717;DHT22;20046;50.746;7.072;2022-08-18T07:40:43;18.70;99.90
33717;DHT22;20046;50.746;7.072;2022-08-18T07:43:38;18.70;99.90
33717;DHT22;20046;50.746;7.072;2022-08-18T07:46:20;18.70;99.90
33717;DHT22;20046;50.746;7.072;2022-08-18T07:48:48;18.80;99.90
33717;DHT22;20046;50.746;7.072;2022-08-18T08:00:21;19.00;99.90
33717;DHT22;20046;50.746;7.072;2022-08-18T08:16:59;19.20;99.90
33717;DHT22;20046;50.746;7.072;2022-08-18T08:19:42;19.20;99.90
33717;DHT22;20046;50.746;7.072;2022-08-18T08:28:07;19.50;99.90
33717;DHT22;20046;50.746;7.072;2022-08-18T08:33:46;19.80;99.90
33717;DHT22;20046;50.746;7.072;2022-08-18T08:36:27;20.00;99.90
33717;DHT22;20046;50.746;7.072;2022-08-18T08:39:08;20.10;99.90
33717;DHT22;20046;50.746;7.072;2022-08-18T08:41:50;20.10;99.90
33717;DHT22;20046;50.746;7.072;2022-08-18T08:44:26;20.10;99.90
33717;DHT22;20046;50.746;7.072;2022-08-18T08:46:56;20.10;99.90
33717;DHT22;20046;50.746;7.072;2022-08-18T08:49:43;20.10;99.90
33717;DHT22;20046;50.746;7.072;2022-08-18T08:55:45;20.30;99.90
33717;DHT22;20046;50.746;7.072;2022-08-18T08:58:30;20.40;99.90
33717;DHT22;20046;50.746;7.072;2022-08-18T09:00:58;20.40;99.90
33717;DHT22;20046;50.746;7.072;2022-08-18T09:03:36;20.30;99.90
33717;DHT22;20046;50.746;7.072;2022-08-18T09:22:35;20.80;99.90
33717;DHT22;20046;50.746;7.072;2022-08-18T09:25:10;21.00;99.90
33717;DHT22;20046;50.746;7.072;2022-08-18T09:27:41;21.00;99.90
33717;DHT22;20046;50.746;7.072;2022-08-18T09:30:35;21.20;99.90
33717;DHT22;20046;50.746;7.072;2022-08-18T09:33:10;21.20;99.90
33717;DHT22;20046;50.746;7.072;2022-08-18T09:38:25;21.20;99.90
33717;DHT22;20046;50.746;7.072;2022-08-18T09:41:18;21.20;99.90
33717;DHT22;20046;50.746;7.072;2022-08-18T09:57:31;20.70;99.90
33717;DHT22;20046;50.746;7.072;2022-08-18T10:10:31;20.80;99.90
33717;DHT22;20046;50.746;7.072;2022-08-18T10:15:45;20.90;99.90
33717;DHT22;20046;50.746;7.072;2022-08-18T10:18:42;21.00;99.90
33717;DHT22;20046;50.746;7.072;2022-08-18T10:21:16;21.20;99.90
33717;DHT22;20046;50.746;7.072;2022-08-18T10:31:26;21.90;99.90
33717;DHT22;20046;50.746;7.072;2022-08-18T10:34:06;21.90;99.90
33717;DHT22;20046;50.746;7.072;2022-08-18T10:36:51;21.90;99.90
33717;DHT22;20046;50.746;7.072;2022-08-18T10:40:12;21.80;99.90
33717;DHT22;20046;50.746;7.072;2022-08-18T10:42:22;21.70;99.90
33717;DHT22;20046;50.746;7.072;2022-08-18T10:44:51;21.50;99.90
33717;DHT22;20046;50.746;7.072;2022-08-18T10:47:27;21.50;99.90
33717;DHT22;20046;50.746;7.072;2022-08-18T10:49:54;21.60;99.90
33717;DHT22;20046;50.746;7.072;2022-08-18T10:55:23;21.80;99.90
33717;DHT22;20046;50.746;7.072;2022-08-18T11:03:39;22.10;99.90
33717;DHT22;20046;50.746;7.072;2022-08-18T11:06:10;22.20;99.90
33717;DHT22;20046;50.746;7.072;2022-08-18T11:08:46;22.20;99.90
33717;DHT22;20046;50.746;7.072;2022-08-18T11:11:13;22.30;99.90
33717;DHT22;20046;50.746;7.072;2022-08-18T11:17:02;23.00;99.90
33717;DHT22;20046;50.746;7.072;2022-08-18T11:19:36;23.30;99.90
33717;DHT22;20046;50.746;7.072;2022-08-18T11:22:02;23.80;99.90
33717;DHT22;20046;50.746;7.072;2022-08-18T11:24:29;24.00;99.90
33717;DHT22;20046;50.746;7.072;2022-08-18T11:26:59;24.10;99.90
33717;DHT22;20046;50.746;7.072;2022-08-18T11:29:27;24.10;99.90
33717;DHT22;20046;50.746;7.072;2022-08-18T11:34:49;23.70;99.90
33717;DHT22;20046;50.746;7.072;2022-08-18T11:37:25;23.70;99.90
33717;DHT22;20046;50.746;7.072;2022-08-18T11:39:55;23.70;99.90
33717;DHT22;20046;50.746;7.072;2022-08-18T11:42:30;23.90;99.90
33717;DHT22;20046;50.746;7.072;2022-08-18T11:45:16;24.40;99.90
33717;DHT22;20046;50.746;7.072;2022-08-18T11:50:58;24.90;99.90
33717;DHT22;20046;50.746;7.072;2022-08-18T11:59:03;24.40;99.90
33717;DHT22;20046;50.746;7.072;2022-08-18T12:07:07;23.80;99.90
33717;DHT22;20046;50.746;7.072;2022-08-18T12:10:06;23.50;99.90
33717;DHT22;20046;50.746;7.072;2022-08-18T12:12:31;23.30;99.90
33717;DHT22;20046;50.746;7.072;2022-08-18T12:15:41;23.30;99.90
33717;DHT22;20046;50.746;7.072;2022-08-18T12:17:48;23.20;99.90
33717;DHT22;20046;50.746;7.072;2022-08-18T12:20:15;23.20;99.90
33717;DHT22;20046;50.746;7.072;2022-08-18T12:22:42;23.20;99.90
33717;DHT22;20046;50.746;7.072;2022-08-18T12:25:12;23.30;99.90
33717;DHT22;20046;50.746;7.072;2022-08-18T12:27:40;23.40;99.90
33717;DHT22;20046;50.746;7.072;2022-08-18T12:30:07;23.60;99.90
33717;DHT22;20046;50.746;7.072;2022-08-18T12:32:34;23.90;99.90
33717;DHT22;20046;50.746;7.072;2022-08-18T12:35:00;24.20;99.90
33717;DHT22;20046;50.746;7.072;2022-08-18T12:37:27;24.50;99.90
33717;DHT22;20046;50.746;7.072;2022-08-18T12:39:54;24.90;99.90
33717;DHT22;20046;50.746;7.072;2022-08-18T12:42:21;25.40;99.90
33717;DHT22;20046;50.746;7.072;2022-08-18T12:44:47;26.00;99.90
33717;DHT22;20046;50.746;7.072;2022-08-18T12:47:19;26.70;99.90
33717;DHT22;20046;50.746;7.072;2022-08-18T12:49:46;26.90;99.90
33717;DHT22;20046;50.746;7.072;2022-08-18T12:52:12;26.80;99.90
33717;DHT22;20046;50.746;7.072;2022-08-18T12:54:38;26.90;99.90
33717;DHT22;20046;50.746;7.072;2022-08-18T12:57:07;27.00;99.90
33717;DHT22;20046;50.746;7.072;2022-08-18T12:59:34;27.10;99.90
33717;DHT22;20046;50.746;7.072;2022-08-18T13:02:03;27.10;99.80
33717;DHT22;20046;50.746;7.072;2022-08-18T13:04:28;27.10;99.40
33717;DHT22;20046;50.746;7.072;2022-08-18T13:06:57;26.90;99.40
33717;DHT22;20046;50.746;7.072;2022-08-18T13:09:23;26.80;99.20
33717;DHT22;20046;50.746;7.072;2022-08-18T13:11:49;26.50;99.20
33717;DHT22;20046;50.746;7.072;2022-08-18T13:14:15;26.40;99.20
33717;DHT22;20046;50.746;7.072;2022-08-18T13:16:43;26.30;99.20
33717;DHT22;20046;50.746;7.072;2022-08-18T13:19:09;26.40;99.40
33717;DHT22;20046;50.746;7.072;2022-08-18T13:21:36;26.50;99.30
33717;DHT22;20046;50.746;7.072;2022-08-18T13:24:02;26.80;98.60
33717;DHT22;20046;50.746;7.072;2022-08-18T13:26:31;27.40;98.00
33717;DHT22;20046;50.746;7.072;2022-08-18T13:28:58;28.40;96.90
33717;DHT22;20046;50.746;7.072;2022-08-18T13:31:25;29.10;95.30
33717;DHT22;20046;50.746;7.072;2022-08-18T13:33:51;29.40;94.30
33717;DHT22;20046;50.746;7.072;2022-08-18T13:36:17;29.80;92.90
33717;DHT22;20046;50.746;7.072;2022-08-18T13:38:43;30.30;92.00
33717;DHT22;20046;50.746;7.072;2022-08-18T13:41:10;30.60;91.40
33717;DHT22;20046;50.746;7.072;2022-08-18T13:43:39;30.80;90.30
33717;DHT22;20046;50.746;7.072;2022-08-18T13:46:10;31.20;89.70
33717;DHT22;20046;50.746;7.072;2022-08-18T13:48:36;31.20;87.70
33717;DHT22;20046;50.746;7.072;2022-08-18T13:51:03;31.20;86.50
33717;DHT22;20046;50.746;7.072;2022-08-18T13:53:29;31.20;85.70
33717;DHT22;20046;50.746;7.072;2022-08-18T13:55:56;31.10;84.80
33717;DHT22;20046;50.746;7.072;2022-08-18T13:58:25;31.10;85.30
33717;DHT22;20046;50.746;7.072;2022-08-18T14:00:55;31.00;85.30
33717;DHT22;20046;50.746;7.072;2022-08-18T14:03:21;31.00;84.70
33717;DHT22;20046;50.746;7.072;2022-08-18T14:05:49;31.10;84.10
33717;DHT22;20046;50.746;7.072;2022-08-18T14:08:14;30.70;83.70
33717;DHT22;20046;50.746;7.072;2022-08-18T14:10:40;30.40;84.80
33717;DHT22;20046;50.746;7.072;2022-08-18T14:13:06;29.70;85.70
33717;DHT22;20046;50.746;7.072;2022-08-18T14:15:32;29.40;87.10
33717;DHT22;20046;50.746;7.072;2022-08-18T14:18:02;29.00;87.50
33717;DHT22;20046;50.746;7.072;2022-08-18T14:20:29;28.80;88.40
33717;DHT22;20046;50.746;7.072;2022-08-18T14:23:13;28.80;89.10
33717;DHT22;20046;50.746;7.072;2022-08-18T14:25:57;28.70;88.60
33717;DHT22;20046;50.746;7.072;2022-08-18T14:28:41;28.60;88.40
33717;DHT22;20046;50.746;7.072;2022-08-18T14:31:07;28.40;88.90
33717;DHT22;20046;50.746;7.072;2022-08-18T14:33:34;28.40;89.30
33717;DHT22;20046;50.746;7.072;2022-08-18T14:36:03;28.40;88.70
33717;DHT22;20046;50.746;7.072;2022-08-18T14:38:30;28.60;88.50
33717;DHT22;20046;50.746;7.072;2022-08-18T14:40:59;28.60;88.00
33717;DHT22;20046;50.746;7.072;2022-08-18T14:43:26;28.60;87.90
33717;DHT22;20046;50.746;7.072;2022-08-18T14:45:52;28.60;88.00
33717;DHT22;20046;50.746;7.072;2022-08-18T14:48:20;28.60;87.80
33717;DHT22;20046;50.746;7.072;2022-08-18T14:50:53;28.50;87.60
33717;DHT22;20046;50.746;7.072;2022-08-18T14:53:23;28.40;87.00
33717;DHT22;20046;50.746;7.072;2022-08-18T14:55:50;28.20;87.40
33717;DHT22;20046;50.746;7.072;2022-08-18T14:58:25;28.10;87.50
33717;DHT22;20046;50.746;7.072;2022-08-18T15:00:52;28.00;87.90
33717;DHT22;20046;50.746;7.072;2022-08-18T15:03:18;28.00;88.50
33717;DHT22;20046;50.746;7.072;2022-08-18T15:05:44;27.80;88.50
33717;DHT22;20046;50.746;7.072;2022-08-18T15:08:09;27.80;89.50
33717;DHT22;20046;50.746;7.072;2022-08-18T15:10:35;27.80;88.50
33717;DHT22;20046;50.746;7.072;2022-08-18T15:13:03;27.90;88.80
33717;DHT22;20046;50.746;7.072;2022-08-18T15:15:28;27.90;88.50
33717;DHT22;20046;50.746;7.072;2022-08-18T15:17:54;27.80;88.10
33717;DHT22;20046;50.746;7.072;2022-08-18T15:20:23;27.70;88.40
33717;DHT22;20046;50.746;7.072;2022-08-18T15:22:49;27.70;88.30
33717;DHT22;20046;50.746;7.072;2022-08-18T15:25:33;27.70;88.50
33717;DHT22;20046;50.746;7.072;2022-08-18T15:28:15;27.70;88.50
33717;DHT22;20046;50.746;7.072;2022-08-18T15:30:46;27.70;88.50
33717;DHT22;20046;50.746;7.072;2022-08-18T15:33:12;27.60;87.80
33717;DHT22;20046;50.746;7.072;2022-08-18T15:35:43;27.60;88.00
33717;DHT22;20046;50.746;7.072;2022-08-18T15:38:10;27.60;88.20
33717;DHT22;20046;50.746;7.072;2022-08-18T15:40:37;27.60;87.90
33717;DHT22;20046;50.746;7.072;2022-08-18T15:43:11;27.60;88.00
33717;DHT22;20046;50.746;7.072;2022-08-18T15:45:40;27.70;87.20
33717;DHT22;20046;50.746;7.072;2022-08-18T15:48:08;27.70;86.30
33717;DHT22;20046;50.746;7.072;2022-08-18T15:50:34;27.80;86.00
33717;DHT22;20046;50.746;7.072;2022-08-18T15:53:02;27.80;85.30
33717;DHT22;20046;50.746;7.072;2022-08-18T15:55:31;27.80;85.30
33717;DHT22;20046;50.746;7.072;2022-08-18T15:57:57;27.80;84.90
33717;DHT22;20046;50.746;7.072;2022-08-18T16:00:25;27.80;85.20
33717;DHT22;20046;50.746;7.072;2022-08-18T16:02:57;27.80;85.20
33717;DHT22;20046;50.746;7.072;2022-08-18T16:05:25;27.70;84.60
33717;DHT22;20046;50.746;7.072;2022-08-18T16:07:52;27.70;84.90
33717;DHT22;20046;50.746;7.072;2022-08-18T16:10:19;27.60;85.20
33717;DHT22;20046;50.746;7.072;2022-08-18T16:12:46;27.60;84.80
33717;DHT22;20046;50.746;7.072;2022-08-18T16:15:21;27.50;84.90
33717;DHT22;20046;50.746;7.072;2022-08-18T16:17:52;27.50;84.50
33717;DHT22;20046;50.746;7.072;2022-08-18T16:20:20;27.40;85.00
33717;DHT22;20046;50.746;7.072;2022-08-18T16:22:47;27.30;84.90
33717;DHT22;20046;50.746;7.072;2022-08-18T16:25:14;27.10;84.80
33717;DHT22;20046;50.746;7.072;2022-08-18T16:27:41;27.00;85.20
33717;DHT22;20046;50.746;7.072;2022-08-18T16:30:19;26.90;85.30
33717;DHT22;20046;50.746;7.072;2022-08-18T16:32:46;26.80;85.20
33717;DHT22;20046;50.746;7.072;2022-08-18T16:35:12;26.70;85.70
33717;DHT22;20046;50.746;7.072;2022-08-18T16:37:38;26.60;85.90
33717;DHT22;20046;50.746;7.072;2022-08-18T16:40:04;26.50;86.50
33717;DHT22;20046;50.746;7.072;2022-08-18T16:42:30;26.30;86.80
33717;DHT22;20046;50.746;7.072;2022-08-18T16:45:01;26.20;87.10
33717;DHT22;20046;50.746;7.072;2022-08-18T16:47:28;26.10;87.40
33717;DHT22;20046;50.746;7.072;2022-08-18T16:49:53;26.10;88.00
33717;DHT22;20046;50.746;7.072;2022-08-18T16:52:19;26.00;88.10
33717;DHT22;20046;50.746;7.072;2022-08-18T16:54:46;26.00;88.40
33717;DHT22;20046;50.746;7.072;2022-08-18T16:57:12;25.90;88.50
33717;DHT22;20046;50.746;7.072;2022-08-18T16:59:38;25.90;88.50
33717;DHT22;20046;50.746;7.072;2022-08-18T17:02:23;25.90;88.50
33717;DHT22;20046;50.746;7.072;2022-08-18T17:05:08;25.90;88.40
33717;DHT22;20046;50.746;7.072;2022-08-18T17:07:36;25.80;88.40
33717;DHT22;20046;50.746;7.072;2022-08-18T17:10:03;25.80;88.90
33717;DHT22;20046;50.746;7.072;2022-08-18T17:12:29;25.70;88.70
33717;DHT22;20046;50.746;7.072;2022-08-18T17:14:55;25.70;89.50
33717;DHT22;20046;50.746;7.072;2022-08-18T17:17:21;25.60;89.40
33717;DHT22;20046;50.746;7.072;2022-08-18T17:19:48;25.60;89.30
33717;DHT22;20046;50.746;7.072;2022-08-18T17:22:15;25.60;89.80
33717;DHT22;20046;50.746;7.072;2022-08-18T17:24:41;25.60;89.60
33717;DHT22;20046;50.746;7.072;2022-08-18T17:27:20;25.60;89.50
33717;DHT22;20046;50.746;7.072;2022-08-18T17:30:10;25.60;89.20
33717;DHT22;20046;50.746;7.072;2022-08-18T17:32:52;25.50;88.90
33717;DHT22;20046;50.746;7.072;2022-08-18T17:35:29;25.50;88.70
33717;DHT22;20046;50.746;7.072;2022-08-18T17:38:06;25.50;89.20
33717;DHT22;20046;50.746;7.072;2022-08-18T17:40:42;25.40;89.20
33717;DHT22;20046;50.746;7.072;2022-08-18T17:43:13;25.30;89.70
33717;DHT22;20046;50.746;7.072;2022-08-18T17:45:40;25.20;89.80
33717;DHT22;20046;50.746;7.072;2022-08-18T17:48:13;25.10;89.70
33717;DHT22;20046;50.746;7.072;2022-08-18T17:50:44;25.00;89.90
33717;DHT22;20046;50.746;7.072;2022-08-18T17:53:31;24.90;90.00
33717;DHT22;20046;50.746;7.072;2022-08-18T17:56:11;24.90;90.10
33717;DHT22;20046;50.746;7.072;2022-08-18T18:01:29;24.70;90.50
33717;DHT22;20046;50.746;7.072;2022-08-18T18:03:57;24.50;90.50
33717;DHT22;20046;50.746;7.072;2022-08-18T18:06:38;24.50;90.60
33717;DHT22;20046;50.746;7.072;2022-08-18T18:11:46;24.30;90.90
33717;DHT22;20046;50.746;7.072;2022-08-18T18:14:33;24.20;91.10
33717;DHT22;20046;50.746;7.072;2022-08-18T18:19:28;24.10;91.30
33717;DHT22;20046;50.746;7.072;2022-08-18T18:22:03;24.10;91.50
33717;DHT22;20046;50.746;7.072;2022-08-18T18:24:33;24.00;91.70
33717;DHT22;20046;50.746;7.072;2022-08-18T18:26:59;23.90;91.90
33717;DHT22;20046;50.746;7.072;2022-08-18T18:29:30;23.90;92.00
33717;DHT22;20046;50.746;7.072;2022-08-18T18:34:45;23.80;92.20
33717;DHT22;20046;50.746;7.072;2022-08-18T18:37:28;23.70;92.50